sensor_id;sensor_type;location;lat;lon;timestamp;P1;durP1;ratioP1;P2;durP2;ratioP2
53269;SDS011;39159;45.634;9.420;2023-09-19T00:00:59;7.00;;;3.17;;
53269;SDS011;39159;45.634;9.420;2023-09-19T00:03:25;6.97;;;2.92;;
53269;SDS011;39159;45.634;9.420;2023-09-19T00:05:53;7.65;;;3.10;;
53269;SDS011;39159;45.634;9.420;2023-09-19T00:08:20;6.13;;;3.30;;
53269;SDS011;39159;45.634;9.420;2023-09-19T00:10:49;11.95;;;3.50;;
53269;SDS011;39159;45.634;9.420;2023-09-19T00:13:15;9.80;;;2.88;;
53269;SDS011;39159;45.634;9.420;2023-09-19T00:15:42;6.88;;;2.90;;
53269;SDS011;39159;45.634;9.420;2023-09-19T00:18:13;7.28;;;2.97;;
53269;SDS011;39159;45.634;9.420;2023-09-19T00:20:40;10.65;;;3.30;;
53269;SDS011;39159;45.634;9.420;2023-09-19T00:23:07;4.85;;;2.40;;
53269;SDS011;39159;45.634;9.420;2023-09-19T00:25:35;6.63;;;2.50;;
53269;SDS011;39159;45.634;9.420;2023-09-19T00:28:04;9.75;;;3.53;;
53269;SDS011;39159;45.634;9.420;2023-09-19T00:30:30;5.25;;;2.50;;
53269;SDS011;39159;45.634;9.420;2023-09-19T00:32:56;4.97;;;2.70;;
53269;SDS011;39159;45.634;9.420;2023-09-19T00:35:21;9.88;;;2.88;;
53269;SDS011;39159;45.634;9.420;2023-09-19T00:37:50;8.65;;;2.40;;
53269;SDS011;39159;45.634;9.420;2023-09-19T00:40:17;6.45;;;2.55;;
53269;SDS011;39159;45.634;9.420;2023-09-19T00:42:43;9.52;;;2.80;;
53269;SDS011;39159;45.634;9.420;2023-09-19T00:45:09;6.70;;;2.60;;
53269;SDS011;39159;45.634;9.420;2023-09-19T00:47:57;6.13;;;2.88;;
53269;SDS011;39159;45.634;9.420;2023-09-19T00:50:23;10.40;;;3.25;;
53269;SDS011;39159;45.634;9.420;2023-09-19T00:52:53;8.55;;;2.90;;
53269;SDS011;39159;45.634;9.420;2023-09-19T00:55:22;10.63;;;3.40;;
53269;SDS011;39159;45.634;9.420;2023-09-19T00:57:49;7.85;;;3.58;;
53269;SDS011;39159;45.634;9.420;2023-09-19T01:00:15;8.23;;;3.60;;
53269;SDS011;39159;45.634;9.420;2023-09-19T01:02:44;7.63;;;3.60;;
53269;SDS011;39159;45.634;9.420;2023-09-19T01:05:10;7.95;;;2.80;;
53269;SDS011;39159;45.634;9.420;2023-09-19T01:07:36;8.38;;;2.75;;
53269;SDS011;39159;45.634;9.420;2023-09-19T01:10:05;8.18;;;2.88;;
53269;SDS011;39159;45.634;9.420;2023-09-19T01:15:44;5.80;;;2.28;;
53269;SDS011;39159;45.634;9.420;2023-09-19T01:29:38;6.38;;;2.67;;
53269;SDS011;39159;45.634;9.420;2023-09-19T01:32:05;3.83;;;2.65;;
53269;SDS011;39159;45.634;9.420;2023-09-19T01:34:44;4.75;;;2.53;;
53269;SDS011;39159;45.634;9.420;2023-09-19T01:37:12;6.03;;;2.70;;
53269;SDS011;39159;45.634;9.420;2023-09-19T01:39:39;7.15;;;2.90;;
53269;SDS011;39159;45.634;9.420;2023-09-19T01:42:11;5.53;;;2.75;;
53269;SDS011;39159;45.634;9.420;2023-09-19T01:52:47;7.30;;;3.28;;
53269;SDS011;39159;45.634;9.420;2023-09-19T01:55:17;8.02;;;3.05;;
53269;SDS011;39159;45.634;9.420;2023-09-19T01:57:48;6.45;;;2.60;;
53269;SDS011;39159;45.634;9.420;2023-09-19T02:00:19;10.23;;;3.15;;
53269;SDS011;39159;45.634;9.420;2023-09-19T02:02:48;9.85;;;3.13;;
53269;SDS011;39159;45.634;9.420;2023-09-19T02:05:21;4.63;;;2.92;;
53269;SDS011;39159;45.634;9.420;2023-09-19T02:07:51;9.02;;;3.83;;
53269;SDS011;39159;45.634;9.420;2023-09-19T02:10:18;8.48;;;3.65;;
53269;SDS011;39159;45.634;9.420;2023-09-19T02:12:43;6.38;;;3.25;;
53269;SDS011;39159;45.634;9.420;2023-09-19T02:15:09;6.13;;;2.85;;
53269;SDS011;39159;45.634;9.420;2023-09-19T02:17:35;7.57;;;3.10;;
53269;SDS011;39159;45.634;9.420;2023-09-19T02:20:00;5.38;;;2.70;;
53269;SDS011;39159;45.634;9.420;2023-09-19T02:22:28;4.82;;;2.92;;
53269;SDS011;39159;45.634;9.420;2023-09-19T02:24:54;7.93;;;3.03;;
53269;SDS011;39159;45.634;9.420;2023-09-19T02:27:23;5.90;;;2.88;;
53269;SDS011;39159;45.634;9.420;2023-09-19T02:29:48;6.05;;;2.65;;
53269;SDS011;39159;45.634;9.420;2023-09-19T02:32:14;8.18;;;3.22;;
53269;SDS011;39159;45.634;9.420;2023-09-19T02:34:39;7.97;;;3.63;;
53269;SDS011;39159;45.634;9.420;2023-09-19T02:37:08;7.75;;;3.00;;
53269;SDS011;39159;45.634;9.420;2023-09-19T02:39:33;8.50;;;3.15;;
53269;SDS011;39159;45.634;9.420;2023-09-19T02:41:59;8.80;;;3.65;;
53269;SDS011;39159;45.634;9.420;2023-09-19T02:44:25;8.82;;;3.20;;
53269;SDS011;39159;45.634;9.420;2023-09-19T02:46:50;6.75;;;3.45;;
53269;SDS011;39159;45.634;9.420;2023-09-19T02:49:16;8.68;;;3.33;;
53269;SDS011;39159;45.634;9.420;2023-09-19T02:51:43;5.72;;;3.13;;
53269;SDS011;39159;45.634;9.420;2023-09-19T02:54:09;10.70;;;3.40;;
53269;SDS011;39159;45.634;9.420;2023-09-19T02:56:34;9.63;;;3.60;;
53269;SDS011;39159;45.634;9.420;2023-09-19T02:59:01;7.70;;;2.88;;
53269;SDS011;39159;45.634;9.420;2023-09-19T03:01:26;6.72;;;3.40;;
53269;SDS011;39159;45.634;9.420;2023-09-19T03:03:53;7.45;;;3.38;;
53269;SDS011;39159;45.634;9.420;2023-09-19T03:06:19;8.57;;;2.97;;
53269;SDS011;39159;45.634;9.420;2023-09-19T03:08:45;6.57;;;2.65;;
53269;SDS011;39159;45.634;9.420;2023-09-19T03:11:11;9.15;;;3.53;;
53269;SDS011;39159;45.634;9.420;2023-09-19T03:13:39;9.02;;;2.95;;
53269;SDS011;39159;45.634;9.420;2023-09-19T03:16:06;5.53;;;3.15;;
53269;SDS011;39159;45.634;9.420;2023-09-19T03:18:33;7.75;;;3.10;;
53269;SDS011;39159;45.634;9.420;2023-09-19T03:20:59;5.32;;;2.53;;
53269;SDS011;39159;45.634;9.420;2023-09-19T03:23:25;7.40;;;2.67;;
53269;SDS011;39159;45.634;9.420;2023-09-19T03:25:52;7.53;;;2.72;;
53269;SDS011;39159;45.634;9.420;2023-09-19T03:28:18;7.25;;;2.67;;
53269;SDS011;39159;45.634;9.420;2023-09-19T03:30:45;5.93;;;2.40;;
53269;SDS011;39159;45.634;9.420;2023-09-19T03:33:11;3.83;;;2.47;;
53269;SDS011;39159;45.634;9.420;2023-09-19T03:35:37;6.90;;;2.55;;
53269;SDS011;39159;45.634;9.420;2023-09-19T03:38:03;3.63;;;2.10;;
53269;SDS011;39159;45.634;9.420;2023-09-19T03:40:29;6.55;;;2.80;;
53269;SDS011;39159;45.634;9.420;2023-09-19T03:42:55;6.75;;;2.83;;
53269;SDS011;39159;45.634;9.420;2023-09-19T03:45:20;5.53;;;3.10;;
53269;SDS011;39159;45.634;9.420;2023-09-19T03:47:46;8.15;;;2.88;;
53269;SDS011;39159;45.634;9.420;2023-09-19T03:50:14;7.25;;;2.95;;
53269;SDS011;39159;45.634;9.420;2023-09-19T03:52:42;5.22;;;2.72;;
53269;SDS011;39159;45.634;9.420;2023-09-19T03:55:08;7.63;;;2.90;;
53269;SDS011;39159;45.634;9.420;2023-09-19T03:57:34;6.13;;;3.03;;
53269;SDS011;39159;45.634;9.420;2023-09-19T04:00:00;7.05;;;3.13;;
53269;SDS011;39159;45.634;9.420;2023-09-19T04:02:26;5.22;;;2.47;;
53269;SDS011;39159;45.634;9.420;2023-09-19T04:04:57;3.90;;;2.10;;
53269;SDS011;39159;45.634;9.420;2023-09-19T04:07:23;4.53;;;2.50;;
53269;SDS011;39159;45.634;9.420;2023-09-19T04:09:50;3.78;;;2.45;;
53269;SDS011;39159;45.634;9.420;2023-09-19T04:12:18;6.00;;;2.75;;
53269;SDS011;39159;45.634;9.420;2023-09-19T04:14:44;4.13;;;2.40;;
53269;SDS011;39159;45.634;9.420;2023-09-19T04:17:09;6.65;;;2.80;;
53269;SDS011;39159;45.634;9.420;2023-09-19T04:19:35;3.75;;;2.65;;
53269;SDS011;39159;45.634;9.420;2023-09-19T04:22:01;8.02;;;2.88;;
53269;SDS011;39159;45.634;9.420;2023-09-19T04:24:27;7.28;;;2.90;;
53269;SDS011;39159;45.634;9.420;2023-09-19T04:26:52;6.85;;;2.80;;
53269;SDS011;39159;45.634;9.420;2023-09-19T04:29:17;5.65;;;2.50;;
53269;SDS011;39159;45.634;9.420;2023-09-19T04:31:44;4.78;;;2.50;;
53269;SDS011;39159;45.634;9.420;2023-09-19T04:34:11;4.70;;;2.63;;
53269;SDS011;39159;45.634;9.420;2023-09-19T04:36:42;5.32;;;3.00;;
53269;SDS011;39159;45.634;9.420;2023-09-19T04:39:08;12.05;;;2.72;;
53269;SDS011;39159;45.634;9.420;2023-09-19T04:41:36;5.15;;;2.67;;
53269;SDS011;39159;45.634;9.420;2023-09-19T04:44:04;5.22;;;2.20;;
53269;SDS011;39159;45.634;9.420;2023-09-19T04:46:30;3.90;;;2.40;;
53269;SDS011;39159;45.634;9.420;2023-09-19T04:48:55;7.57;;;2.53;;
53269;SDS011;39159;45.634;9.420;2023-09-19T04:51:21;9.35;;;2.40;;
53269;SDS011;39159;45.634;9.420;2023-09-19T04:53:46;5.50;;;2.40;;
53269;SDS011;39159;45.634;9.420;2023-09-19T04:56:13;3.63;;;2.55;;
53269;SDS011;39159;45.634;9.420;2023-09-19T04:58:38;8.77;;;2.67;;
53269;SDS011;39159;45.634;9.420;2023-09-19T05:01:03;7.05;;;2.88;;
53269;SDS011;39159;45.634;9.420;2023-09-19T05:03:29;8.85;;;3.00;;
53269;SDS011;39159;45.634;9.420;2023-09-19T05:05:54;6.20;;;3.22;;
53269;SDS011;39159;45.634;9.420;2023-09-19T05:08:20;11.10;;;3.83;;
53269;SDS011;39159;45.634;9.420;2023-09-19T05:10:47;6.50;;;3.25;;
53269;SDS011;39159;45.634;9.420;2023-09-19T05:13:13;10.73;;;3.88;;
53269;SDS011;39159;45.634;9.420;2023-09-19T05:15:39;8.10;;;3.30;;
53269;SDS011;39159;45.634;9.420;2023-09-19T05:18:04;5.35;;;3.40;;
53269;SDS011;39159;45.634;9.420;2023-09-19T05:20:31;5.22;;;3.60;;
53269;SDS011;39159;45.634;9.420;2023-09-19T05:23:03;10.38;;;4.65;;
53269;SDS011;39159;45.634;9.420;2023-09-19T05:25:36;9.10;;;4.45;;
53269;SDS011;39159;45.634;9.420;2023-09-19T05:28:04;10.25;;;4.13;;
53269;SDS011;39159;45.634;9.420;2023-09-19T05:30:33;11.23;;;4.72;;
53269;SDS011;39159;45.634;9.420;2023-09-19T05:33:00;6.75;;;3.67;;
53269;SDS011;39159;45.634;9.420;2023-09-19T05:35:27;6.20;;;3.97;;
53269;SDS011;39159;45.634;9.420;2023-09-19T05:37:52;12.20;;;4.68;;
53269;SDS011;39159;45.634;9.420;2023-09-19T05:40:20;9.15;;;3.95;;
53269;SDS011;39159;45.634;9.420;2023-09-19T05:42:46;5.85;;;3.55;;
53269;SDS011;39159;45.634;9.420;2023-09-19T05:45:13;5.68;;;3.20;;
53269;SDS011;39159;45.634;9.420;2023-09-19T05:47:42;7.63;;;4.30;;
53269;SDS011;39159;45.634;9.420;2023-09-19T05:50:10;9.68;;;3.95;;
53269;SDS011;39159;45.634;9.420;2023-09-19T05:52:36;8.48;;;3.85;;
53269;SDS011;39159;45.634;9.420;2023-09-19T05:55:04;6.50;;;3.35;;
53269;SDS011;39159;45.634;9.420;2023-09-19T05:57:31;9.10;;;4.07;;
53269;SDS011;39159;45.634;9.420;2023-09-19T05:59:57;7.57;;;3.75;;
53269;SDS011;39159;45.634;9.420;2023-09-19T06:02:23;7.88;;;4.10;;
53269;SDS011;39159;45.634;9.420;2023-09-19T06:04:48;5.35;;;3.42;;
53269;SDS011;39159;45.634;9.420;2023-09-19T06:07:15;7.05;;;3.45;;
53269;SDS011;39159;45.634;9.420;2023-09-19T06:09:41;6.88;;;3.65;;
53269;SDS011;39159;45.634;9.420;2023-09-19T06:12:07;7.78;;;3.70;;
53269;SDS011;39159;45.634;9.420;2023-09-19T06:14:32;6.82;;;4.00;;
53269;SDS011;39159;45.634;9.420;2023-09-19T06:16:58;5.50;;;3.10;;
53269;SDS011;39159;45.634;9.420;2023-09-19T06:19:23;6.18;;;3.20;;
53269;SDS011;39159;45.634;9.420;2023-09-19T06:21:50;7.15;;;3.92;;
53269;SDS011;39159;45.634;9.420;2023-09-19T06:24:19;4.88;;;2.85;;
53269;SDS011;39159;45.634;9.420;2023-09-19T06:26:44;6.68;;;3.08;;
53269;SDS011;39159;45.634;9.420;2023-09-19T06:29:10;5.95;;;2.90;;
53269;SDS011;39159;45.634;9.420;2023-09-19T06:31:35;6.43;;;3.00;;
53269;SDS011;39159;45.634;9.420;2023-09-19T06:34:01;6.93;;;3.42;;
53269;SDS011;39159;45.634;9.420;2023-09-19T06:36:28;6.00;;;3.42;;
53269;SDS011;39159;45.634;9.420;2023-09-19T06:38:53;5.25;;;3.50;;
53269;SDS011;39159;45.634;9.420;2023-09-19T06:41:19;8.15;;;3.33;;
53269;SDS011;39159;45.634;9.420;2023-09-19T06:43:46;8.85;;;4.32;;
53269;SDS011;39159;45.634;9.420;2023-09-19T06:46:11;8.05;;;4.60;;
53269;SDS011;39159;45.634;9.420;2023-09-19T06:48:37;6.47;;;4.32;;
53269;SDS011;39159;45.634;9.420;2023-09-19T06:51:03;6.10;;;4.32;;
53269;SDS011;39159;45.634;9.420;2023-09-19T06:53:29;7.97;;;4.57;;
53269;SDS011;39159;45.634;9.420;2023-09-19T06:55:56;8.88;;;5.28;;
53269;SDS011;39159;45.634;9.420;2023-09-19T06:58:22;9.68;;;4.78;;
53269;SDS011;39159;45.634;9.420;2023-09-19T07:00:48;9.13;;;5.10;;
53269;SDS011;39159;45.634;9.420;2023-09-19T07:03:15;8.43;;;4.68;;
53269;SDS011;39159;45.634;9.420;2023-09-19T07:05:45;9.52;;;4.72;;
53269;SDS011;39159;45.634;9.420;2023-09-19T07:08:12;8.20;;;4.30;;
53269;SDS011;39159;45.634;9.420;2023-09-19T07:10:38;8.45;;;3.67;;
53269;SDS011;39159;45.634;9.420;2023-09-19T07:13:06;9.50;;;4.60;;
53269;SDS011;39159;45.634;9.420;2023-09-19T07:15:35;7.03;;;4.20;;
53269;SDS011;39159;45.634;9.420;2023-09-19T07:18:04;6.90;;;4.22;;
53269;SDS011;39159;45.634;9.420;2023-09-19T07:20:30;9.10;;;4.03;;
53269;SDS011;39159;45.634;9.420;2023-09-19T07:22:57;7.18;;;4.07;;
53269;SDS011;39159;45.634;9.420;2023-09-19T07:25:29;10.80;;;5.05;;
53269;SDS011;39159;45.634;9.420;2023-09-19T07:27:55;12.35;;;4.97;;
53269;SDS011;39159;45.634;9.420;2023-09-19T07:30:22;6.68;;;4.72;;
53269;SDS011;39159;45.634;9.420;2023-09-19T07:32:47;9.52;;;5.38;;
53269;SDS011;39159;45.634;9.420;2023-09-19T07:35:13;10.68;;;4.97;;
53269;SDS011;39159;45.634;9.420;2023-09-19T07:37:40;9.10;;;5.00;;
53269;SDS011;39159;45.634;9.420;2023-09-19T07:40:05;7.18;;;5.38;;
53269;SDS011;39159;45.634;9.420;2023-09-19T07:42:34;14.50;;;5.25;;
53269;SDS011;39159;45.634;9.420;2023-09-19T07:45:01;9.48;;;4.70;;
53269;SDS011;39159;45.634;9.420;2023-09-19T07:47:28;12.25;;;5.13;;
53269;SDS011;39159;45.634;9.420;2023-09-19T07:49:55;11.77;;;4.75;;
53269;SDS011;39159;45.634;9.420;2023-09-19T07:52:20;8.48;;;4.53;;
53269;SDS011;39159;45.634;9.420;2023-09-19T07:54:47;12.07;;;5.47;;
53269;SDS011;39159;45.634;9.420;2023-09-19T07:57:14;8.55;;;4.43;;
53269;SDS011;39159;45.634;9.420;2023-09-19T07:59:40;10.95;;;5.22;;
53269;SDS011;39159;45.634;9.420;2023-09-19T08:02:07;12.05;;;5.75;;
53269;SDS011;39159;45.634;9.420;2023-09-19T08:04:41;7.55;;;5.22;;
53269;SDS011;39159;45.634;9.420;2023-09-19T08:07:11;8.02;;;5.03;;
53269;SDS011;39159;45.634;9.420;2023-09-19T08:09:38;13.75;;;5.55;;
53269;SDS011;39159;45.634;9.420;2023-09-19T08:12:04;12.75;;;6.03;;
53269;SDS011;39159;45.634;9.420;2023-09-19T08:14:30;10.45;;;6.00;;
53269;SDS011;39159;45.634;9.420;2023-09-19T08:16:56;8.20;;;5.05;;
53269;SDS011;39159;45.634;9.420;2023-09-19T08:19:23;13.70;;;5.72;;
53269;SDS011;39159;45.634;9.420;2023-09-19T08:21:53;11.88;;;6.32;;
53269;SDS011;39159;45.634;9.420;2023-09-19T08:24:20;13.60;;;6.78;;
53269;SDS011;39159;45.634;9.420;2023-09-19T08:26:46;11.30;;;6.32;;
53269;SDS011;39159;45.634;9.420;2023-09-19T08:29:11;11.00;;;6.78;;
53269;SDS011;39159;45.634;9.420;2023-09-19T08:31:37;18.80;;;6.60;;
53269;SDS011;39159;45.634;9.420;2023-09-19T08:34:03;8.57;;;6.15;;
53269;SDS011;39159;45.634;9.420;2023-09-19T08:36:28;11.93;;;6.53;;
53269;SDS011;39159;45.634;9.420;2023-09-19T08:38:55;12.45;;;7.60;;
53269;SDS011;39159;45.634;9.420;2023-09-19T08:41:21;16.75;;;9.70;;
53269;SDS011;39159;45.634;9.420;2023-09-19T08:43:46;17.60;;;9.70;;
53269;SDS011;39159;45.634;9.420;2023-09-19T08:46:15;21.98;;;9.77;;
53269;SDS011;39159;45.634;9.420;2023-09-19T08:51:26;14.15;;;8.38;;
53269;SDS011;39159;45.634;9.420;2023-09-19T08:54:03;15.07;;;7.95;;
53269;SDS011;39159;45.634;9.420;2023-09-19T08:56:31;17.60;;;8.75;;
53269;SDS011;39159;45.634;9.420;2023-09-19T08:59:02;18.92;;;9.70;;
53269;SDS011;39159;45.634;9.420;2023-09-19T09:01:29;22.05;;;10.02;;
53269;SDS011;39159;45.634;9.420;2023-09-19T09:03:57;17.77;;;9.80;;
53269;SDS011;39159;45.634;9.420;2023-09-19T09:06:23;16.60;;;9.65;;
53269;SDS011;39159;45.634;9.420;2023-09-19T09:08:50;19.58;;;11.27;;
53269;SDS011;39159;45.634;9.420;2023-09-19T09:11:16;21.35;;;8.63;;
53269;SDS011;39159;45.634;9.420;2023-09-19T09:13:46;19.75;;;10.00;;
53269;SDS011;39159;45.634;9.420;2023-09-19T09:16:12;25.48;;;10.55;;
53269;SDS011;39159;45.634;9.420;2023-09-19T09:18:38;21.05;;;10.48;;
53269;SDS011;39159;45.634;9.420;2023-09-19T09:21:04;14.98;;;8.70;;
53269;SDS011;39159;45.634;9.420;2023-09-19T09:23:30;18.38;;;9.65;;
53269;SDS011;39159;45.634;9.420;2023-09-19T09:25:57;19.55;;;9.70;;
53269;SDS011;39159;45.634;9.420;2023-09-19T09:28:31;17.20;;;9.55;;
53269;SDS011;39159;45.634;9.420;2023-09-19T09:30:59;20.35;;;11.23;;
53269;SDS011;39159;45.634;9.420;2023-09-19T09:33:27;17.50;;;11.10;;
53269;SDS011;39159;45.634;9.420;2023-09-19T09:35:54;16.25;;;9.93;;
53269;SDS011;39159;45.634;9.420;2023-09-19T09:38:46;18.70;;;11.43;;
53269;SDS011;39159;45.634;9.420;2023-09-19T09:41:16;19.13;;;11.55;;
53269;SDS011;39159;45.634;9.420;2023-09-19T09:43:52;19.40;;;10.25;;
53269;SDS011;39159;45.634;9.420;2023-09-19T09:46:19;20.08;;;10.13;;
53269;SDS011;39159;45.634;9.420;2023-09-19T09:48:46;15.02;;;8.45;;
53269;SDS011;39159;45.634;9.420;2023-09-19T09:54:24;12.40;;;7.30;;
53269;SDS011;39159;45.634;9.420;2023-09-19T09:56:59;15.38;;;7.35;;
53269;SDS011;39159;45.634;9.420;2023-09-19T09:59:45;17.42;;;7.55;;
53269;SDS011;39159;45.634;9.420;2023-09-19T10:02:19;16.10;;;7.57;;
53269;SDS011;39159;45.634;9.420;2023-09-19T10:04:50;15.52;;;8.32;;
53269;SDS011;39159;45.634;9.420;2023-09-19T10:07:34;13.13;;;7.50;;
53269;SDS011;39159;45.634;9.420;2023-09-19T10:10:03;15.25;;;8.55;;
53269;SDS011;39159;45.634;9.420;2023-09-19T10:12:47;13.52;;;8.57;;
53269;SDS011;39159;45.634;9.420;2023-09-19T10:15:18;21.00;;;7.65;;
53269;SDS011;39159;45.634;9.420;2023-09-19T10:17:45;18.25;;;8.68;;
53269;SDS011;39159;45.634;9.420;2023-09-19T10:20:13;17.90;;;8.85;;
53269;SDS011;39159;45.634;9.420;2023-09-19T10:23:15;16.85;;;8.85;;
53269;SDS011;39159;45.634;9.420;2023-09-19T10:25:47;16.05;;;6.82;;
53269;SDS011;39159;45.634;9.420;2023-09-19T10:28:14;10.95;;;6.70;;
53269;SDS011;39159;45.634;9.420;2023-09-19T10:30:44;10.50;;;6.63;;
53269;SDS011;39159;45.634;9.420;2023-09-19T10:33:15;12.98;;;7.70;;
53269;SDS011;39159;45.634;9.420;2023-09-19T10:35:46;18.60;;;7.88;;
53269;SDS011;39159;45.634;9.420;2023-09-19T10:38:13;14.38;;;8.32;;
53269;SDS011;39159;45.634;9.420;2023-09-19T10:40:42;13.63;;;6.35;;
53269;SDS011;39159;45.634;9.420;2023-09-19T10:43:13;18.02;;;7.50;;
53269;SDS011;39159;45.634;9.420;2023-09-19T10:45:43;11.02;;;7.18;;
53269;SDS011;39159;45.634;9.420;2023-09-19T10:48:09;14.95;;;7.45;;
53269;SDS011;39159;45.634;9.420;2023-09-19T10:50:41;15.85;;;7.57;;
53269;SDS011;39159;45.634;9.420;2023-09-19T10:53:10;15.20;;;8.10;;
53269;SDS011;39159;45.634;9.420;2023-09-19T10:55:37;15.93;;;10.35;;
53269;SDS011;39159;45.634;9.420;2023-09-19T10:58:03;21.63;;;10.38;;
53269;SDS011;39159;45.634;9.420;2023-09-19T11:03:27;17.23;;;9.88;;
53269;SDS011;39159;45.634;9.420;2023-09-19T11:06:02;14.23;;;9.13;;
53269;SDS011;39159;45.634;9.420;2023-09-19T11:08:30;17.15;;;9.18;;
53269;SDS011;39159;45.634;9.420;2023-09-19T11:30:33;12.73;;;7.70;;
53269;SDS011;39159;45.634;9.420;2023-09-19T11:46:25;13.23;;;6.85;;
53269;SDS011;39159;45.634;9.420;2023-09-19T11:48:53;11.32;;;6.07;;
53269;SDS011;39159;45.634;9.420;2023-09-19T11:51:23;10.85;;;5.93;;
53269;SDS011;39159;45.634;9.420;2023-09-19T11:53:53;15.10;;;5.90;;
53269;SDS011;39159;45.634;9.420;2023-09-19T11:56:20;13.48;;;6.03;;
53269;SDS011;39159;45.634;9.420;2023-09-19T11:58:51;14.80;;;6.22;;
53269;SDS011;39159;45.634;9.420;2023-09-19T12:01:29;9.95;;;5.20;;
53269;SDS011;39159;45.634;9.420;2023-09-19T12:03:57;12.07;;;5.78;;
53269;SDS011;39159;45.634;9.420;2023-09-19T12:06:28;11.32;;;5.22;;
53269;SDS011;39159;45.634;9.420;2023-09-19T12:08:54;11.05;;;4.68;;
53269;SDS011;39159;45.634;9.420;2023-09-19T12:11:22;11.05;;;5.05;;
53269;SDS011;39159;45.634;9.420;2023-09-19T12:13:48;11.45;;;5.72;;
53269;SDS011;39159;45.634;9.420;2023-09-19T12:16:15;9.90;;;5.25;;
53269;SDS011;39159;45.634;9.420;2023-09-19T12:18:42;9.40;;;4.97;;
53269;SDS011;39159;45.634;9.420;2023-09-19T12:21:20;10.93;;;5.15;;
53269;SDS011;39159;45.634;9.420;2023-09-19T12:26:45;10.00;;;5.07;;
53269;SDS011;39159;45.634;9.420;2023-09-19T12:29:18;9.38;;;5.47;;
53269;SDS011;39159;45.634;9.420;2023-09-19T12:34:26;14.52;;;5.57;;
53269;SDS011;39159;45.634;9.420;2023-09-19T12:39:52;11.75;;;5.82;;
53269;SDS011;39159;45.634;9.420;2023-09-19T12:42:23;11.57;;;5.88;;
53269;SDS011;39159;45.634;9.420;2023-09-19T12:44:53;11.32;;;4.93;;
53269;SDS011;39159;45.634;9.420;2023-09-19T12:47:22;10.57;;;5.10;;
53269;SDS011;39159;45.634;9.420;2023-09-19T12:52:38;9.63;;;5.20;;
53269;SDS011;39159;45.634;9.420;2023-09-19T12:55:05;15.13;;;4.50;;
53269;SDS011;39159;45.634;9.420;2023-09-19T12:57:32;11.13;;;5.43;;
53269;SDS011;39159;45.634;9.420;2023-09-19T13:00:00;9.70;;;5.95;;
53269;SDS011;39159;45.634;9.420;2023-09-19T13:02:31;11.85;;;5.80;;
53269;SDS011;39159;45.634;9.420;2023-09-19T13:04:57;9.68;;;6.30;;
53269;SDS011;39159;45.634;9.420;2023-09-19T13:07:43;12.77;;;5.90;;
53269;SDS011;39159;45.634;9.420;2023-09-19T13:10:10;13.70;;;5.88;;
53269;SDS011;39159;45.634;9.420;2023-09-19T13:12:39;11.05;;;5.38;;
53269;SDS011;39159;45.634;9.420;2023-09-19T13:15:10;11.35;;;5.05;;
53269;SDS011;39159;45.634;9.420;2023-09-19T13:17:47;7.72;;;4.50;;
53269;SDS011;39159;45.634;9.420;2023-09-19T13:20:22;9.32;;;5.20;;
53269;SDS011;39159;45.634;9.420;2023-09-19T13:22:57;11.63;;;5.60;;
53269;SDS011;39159;45.634;9.420;2023-09-19T13:25:31;12.35;;;5.35;;
53269;SDS011;39159;45.634;9.420;2023-09-19T13:27:58;7.57;;;4.70;;
53269;SDS011;39159;45.634;9.420;2023-09-19T13:30:25;9.43;;;4.78;;
53269;SDS011;39159;45.634;9.420;2023-09-19T13:33:09;6.95;;;4.00;;
53269;SDS011;39159;45.634;9.420;2023-09-19T13:35:36;7.38;;;4.32;;
53269;SDS011;39159;45.634;9.420;2023-09-19T13:38:05;8.05;;;4.53;;
53269;SDS011;39159;45.634;9.420;2023-09-19T13:40:31;14.55;;;5.30;;
53269;SDS011;39159;45.634;9.420;2023-09-19T13:43:00;8.30;;;4.85;;
53269;SDS011;39159;45.634;9.420;2023-09-19T13:45:25;11.85;;;5.05;;
53269;SDS011;39159;45.634;9.420;2023-09-19T13:47:55;10.38;;;4.32;;
53269;SDS011;39159;45.634;9.420;2023-09-19T13:50:21;7.50;;;3.95;;
53269;SDS011;39159;45.634;9.420;2023-09-19T13:52:49;7.60;;;5.28;;
53269;SDS011;39159;45.634;9.420;2023-09-19T13:55:16;12.23;;;4.72;;
53269;SDS011;39159;45.634;9.420;2023-09-19T13:57:45;12.93;;;5.30;;
53269;SDS011;39159;45.634;9.420;2023-09-19T14:00:11;12.52;;;4.60;;
53269;SDS011;39159;45.634;9.420;2023-09-19T14:02:39;13.95;;;5.00;;
53269;SDS011;39159;45.634;9.420;2023-09-19T14:05:05;8.18;;;4.38;;
53269;SDS011;39159;45.634;9.420;2023-09-19T14:07:31;9.65;;;4.10;;
53269;SDS011;39159;45.634;9.420;2023-09-19T14:09:57;10.98;;;4.53;;
53269;SDS011;39159;45.634;9.420;2023-09-19T14:12:22;7.70;;;4.05;;
53269;SDS011;39159;45.634;9.420;2023-09-19T14:14:48;11.50;;;4.97;;
53269;SDS011;39159;45.634;9.420;2023-09-19T14:17:16;10.13;;;4.00;;
53269;SDS011;39159;45.634;9.420;2023-09-19T14:19:41;16.58;;;5.63;;
53269;SDS011;39159;45.634;9.420;2023-09-19T14:22:09;10.82;;;4.63;;
53269;SDS011;39159;45.634;9.420;2023-09-19T14:24:35;6.70;;;3.85;;
53269;SDS011;39159;45.634;9.420;2023-09-19T14:27:00;5.22;;;3.25;;
53269;SDS011;39159;45.634;9.420;2023-09-19T14:29:29;7.18;;;3.30;;
53269;SDS011;39159;45.634;9.420;2023-09-19T14:31:55;7.40;;;3.63;;
53269;SDS011;39159;45.634;9.420;2023-09-19T14:34:22;8.45;;;4.70;;
53269;SDS011;39159;45.634;9.420;2023-09-19T14:36:47;7.45;;;4.03;;
53269;SDS011;39159;45.634;9.420;2023-09-19T14:39:13;11.20;;;4.05;;
53269;SDS011;39159;45.634;9.420;2023-09-19T14:41:39;8.32;;;3.97;;
53269;SDS011;39159;45.634;9.420;2023-09-19T14:44:04;8.50;;;3.65;;
53269;SDS011;39159;45.634;9.420;2023-09-19T14:46:30;10.32;;;4.20;;
53269;SDS011;39159;45.634;9.420;2023-09-19T14:48:56;6.40;;;3.85;;
53269;SDS011;39159;45.634;9.420;2023-09-19T14:51:24;9.25;;;4.63;;
53269;SDS011;39159;45.634;9.420;2023-09-19T14:53:50;9.25;;;5.05;;
53269;SDS011;39159;45.634;9.420;2023-09-19T14:56:15;6.88;;;4.30;;
53269;SDS011;39159;45.634;9.420;2023-09-19T14:58:43;9.00;;;4.60;;
53269;SDS011;39159;45.634;9.420;2023-09-19T15:01:09;9.25;;;4.07;;
53269;SDS011;39159;45.634;9.420;2023-09-19T15:03:36;10.60;;;3.97;;
53269;SDS011;39159;45.634;9.420;2023-09-19T15:06:05;7.30;;;4.78;;
53269;SDS011;39159;45.634;9.420;2023-09-19T15:08:31;15.52;;;6.03;;
53269;SDS011;39159;45.634;9.420;2023-09-19T15:10:59;11.68;;;5.38;;
53269;SDS011;39159;45.634;9.420;2023-09-19T15:13:28;7.40;;;5.53;;
53269;SDS011;39159;45.634;9.420;2023-09-19T15:16:01;9.63;;;5.57;;
53269;SDS011;39159;45.634;9.420;2023-09-19T15:18:27;9.45;;;5.03;;
53269;SDS011;39159;45.634;9.420;2023-09-19T15:20:55;9.00;;;4.50;;
53269;SDS011;39159;45.634;9.420;2023-09-19T15:23:20;13.95;;;4.70;;
53269;SDS011;39159;45.634;9.420;2023-09-19T15:25:49;12.30;;;4.78;;
53269;SDS011;39159;45.634;9.420;2023-09-19T15:28:15;10.80;;;4.65;;
53269;SDS011;39159;45.634;9.420;2023-09-19T15:30:40;7.65;;;4.43;;
53269;SDS011;39159;45.634;9.420;2023-09-19T15:33:06;9.65;;;4.35;;
53269;SDS011;39159;45.634;9.420;2023-09-19T15:35:31;8.50;;;4.35;;
53269;SDS011;39159;45.634;9.420;2023-09-19T15:37:56;11.20;;;4.93;;
53269;SDS011;39159;45.634;9.420;2023-09-19T15:40:23;7.38;;;4.63;;
53269;SDS011;39159;45.634;9.420;2023-09-19T15:42:50;12.05;;;4.80;;
53269;SDS011;39159;45.634;9.420;2023-09-19T15:45:15;9.43;;;5.07;;
53269;SDS011;39159;45.634;9.420;2023-09-19T15:47:43;6.63;;;4.43;;
53269;SDS011;39159;45.634;9.420;2023-09-19T15:50:09;11.55;;;5.40;;
53269;SDS011;39159;45.634;9.420;2023-09-19T15:52:38;10.25;;;5.53;;
53269;SDS011;39159;45.634;9.420;2023-09-19T15:55:05;8.05;;;4.60;;
53269;SDS011;39159;45.634;9.420;2023-09-19T15:57:37;9.60;;;4.60;;
53269;SDS011;39159;45.634;9.420;2023-09-19T16:00:03;8.23;;;5.32;;
53269;SDS011;39159;45.634;9.420;2023-09-19T16:02:37;9.73;;;5.75;;